Time;durP1;ratioP1;P1;durP2;ratioP2;P2;SDS_P1;SDS_P2;PMS_P1;PMS_P2;Temp;Humidity;BMP_temperature;BMP_pressure;BME280_temperature;BME280_humidity;BME280_pressure;Samples;Min_cycle;Max_cycle;Signal;HPM_P1;HPM_P2
2022/06/02 00:02:59;;;;;;;4.50;4.10;;;12.80;99.90;;;;;;5000906;28;20505;-77
2022/06/02 00:05:50;;;;;;;3.72;3.42;;;12.50;99.90;;;;;;4997870;28;20026;-77
2022/06/02 00:08:43;;;;;;;3.83;3.42;;;12.50;99.90;;;;;;4979430;28;20064;-77
2022/06/02 00:11:25;;;;;;;5.55;3.40;;;12.50;99.90;;;;;;5002519;28;20499;-78
2022/06/02 00:14:10;;;;;;;4.38;3.42;;;12.50;99.90;;;;;;4999600;28;20195;-77
2022/06/02 00:17:03;;;;;;;6.15;3.50;;;12.60;99.90;;;;;;4999150;28;20163;-77
2022/06/02 00:19:36;;;;;;;4.32;3.72;;;12.60;99.90;;;;;;4999473;28;20045;-78
2022/06/02 00:22:12;;;;;;;5.22;3.95;;;12.60;99.90;;;;;;5001520;28;20040;-77
2022/06/02 00:25:29;;;;;;;4.30;3.90;;;12.60;99.90;;;;;;4997495;28;20037;-77
2022/06/02 00:28:11;;;;;;;4.50;3.72;;;12.50;99.90;;;;;;4992065;28;20084;-77
2022/06/02 00:30:55;;;;;;;5.18;3.65;;;12.40;99.90;;;;;;4999866;28;20123;-77
2022/06/02 00:33:44;;;;;;;5.70;3.90;;;12.20;99.90;;;;;;5001383;28;20045;-77
2022/06/02 00:36:51;;;;;;;5.45;3.78;;;12.20;99.90;;;;;;5000495;28;20369;-77
2022/06/02 00:39:19;;;;;;;5.75;4.05;;;12.30;99.90;;;;;;5001043;28;20030;-77
2022/06/02 00:42:04;;;;;;;5.63;3.60;;;12.30;99.90;;;;;;4999985;28;20434;-77
2022/06/02 00:44:53;;;;;;;4.40;3.90;;;12.40;99.90;;;;;;5000161;28;20037;-77
2022/06/02 00:47:40;;;;;;;5.43;4.25;;;12.30;99.90;;;;;;5000466;28;20164;-77
2022/06/02 00:50:05;;;;;;;5.35;4.07;;;12.40;99.90;;;;;;4999392;28;20042;-77
2022/06/02 00:53:02;;;;;;;5.18;3.65;;;12.50;99.90;;;;;;4999460;28;20042;-77
2022/06/02 00:59:01;;;;;;;5.35;4.13;;;12.50;99.90;;;;;;4996667;28;20141;-77
2022/06/02 01:01:33;;;;;;;5.85;3.80;;;12.50;99.90;;;;;;4996448;28;20053;-78
2022/06/02 01:04:02;;;;;;;4.57;4.18;;;12.40;99.90;;;;;;4998941;28;20076;-77
2022/06/02 01:07:00;;;;;;;4.25;3.83;;;12.50;99.90;;;;;;4998815;28;20030;-77
2022/06/02 01:09:47;;;;;;;5.03;4.20;;;12.50;99.90;;;;;;4997356;28;20397;-77
2022/06/02 01:12:49;;;;;;;7.65;3.83;;;12.40;99.90;;;;;;4996234;28;20047;-77
2022/06/02 01:15:25;;;;;;;5.03;3.83;;;12.50;99.90;;;;;;4997793;28;20048;-78
2022/06/02 01:18:21;;;;;;;5.38;4.45;;;12.50;99.90;;;;;;4997401;28;20181;-77
2022/06/02 01:21:05;;;;;;;5.80;3.88;;;12.40;99.90;;;;;;4996934;28;20037;-77
2022/06/02 01:23:55;;;;;;;4.18;3.22;;;12.40;99.90;;;;;;5000389;28;21102;-77
2022/06/02 01:26:44;;;;;;;3.97;3.58;;;12.30;99.90;;;;;;4995707;28;20041;-77
2022/06/02 01:29:37;;;;;;;4.30;3.78;;;12.30;99.90;;;;;;4998181;28;20445;-77
2022/06/02 01:32:09;;;;;;;4.35;3.95;;;12.00;99.90;;;;;;4994513;28;20535;-77
2022/06/02 01:34:46;;;;;;;5.32;4.20;;;11.90;99.90;;;;;;4995894;28;20037;-77
2022/06/02 01:37:23;;;;;;;4.53;4.07;;;11.90;99.90;;;;;;4998593;28;20528;-77
2022/06/02 01:40:21;;;;;;;5.93;4.10;;;11.80;99.90;;;;;;4996332;28;20056;-77
2022/06/02 01:43:05;;;;;;;5.93;4.15;;;11.80;99.90;;;;;;4992113;28;20045;-77
2022/06/02 01:45:58;;;;;;;4.22;3.92;;;11.80;99.90;;;;;;4998524;28;20052;-77
2022/06/02 01:48:56;;;;;;;4.38;3.50;;;11.90;99.90;;;;;;4998104;28;20040;-76
2022/06/02 01:51:39;;;;;;;4.85;3.85;;;11.90;99.90;;;;;;4976570;28;20068;-77
2022/06/02 01:54:11;;;;;;;4.60;4.10;;;12.00;99.90;;;;;;4996292;28;20465;-77
2022/06/02 01:56:57;;;;;;;4.78;3.72;;;12.10;99.90;;;;;;5001302;28;21184;-77
2022/06/02 01:59:57;;;;;;;4.82;3.67;;;12.00;99.90;;;;;;4996804;28;20035;-77
2022/06/02 02:02:38;;;;;;;4.45;4.05;;;11.80;99.90;;;;;;4978824;28;20053;-77
2022/06/02 02:05:16;;;;;;;4.32;3.92;;;11.80;99.90;;;;;;4999927;28;20096;-78
2022/06/02 02:08:12;;;;;;;3.40;3.08;;;11.90;99.90;;;;;;4996612;28;20056;-77
2022/06/02 02:11:11;;;;;;;2.92;2.72;;;11.80;99.90;;;;;;4997279;28;20084;-78
2022/06/02 02:13:53;;;;;;;2.65;2.45;;;11.70;99.90;;;;;;4978601;28;20113;-77
2022/06/02 02:16:33;;;;;;;3.40;3.10;;;11.80;99.90;;;;;;4997815;28;20034;-78
2022/06/02 02:19:10;;;;;;;5.82;3.20;;;11.70;99.90;;;;;;4996329;28;20054;-77
2022/06/02 02:21:36;;;;;;;3.47;3.00;;;11.80;99.90;;;;;;4997939;28;20119;-77
2022/06/02 02:24:26;;;;;;;3.50;3.20;;;11.70;99.90;;;;;;4994598;28;20125;-77
2022/06/02 02:27:08;;;;;;;5.03;3.28;;;11.80;99.90;;;;;;4997408;28;20055;-77
2022/06/02 02:29:34;;;;;;;4.05;3.65;;;11.80;99.90;;;;;;4975731;28;20046;-77
2022/06/02 02:32:18;;;;;;;3.63;3.08;;;11.70;99.90;;;;;;4995145;28;20045;-77
2022/06/02 02:35:11;;;;;;;4.28;3.45;;;11.60;99.90;;;;;;4995133;28;20026;-77
2022/06/02 02:37:47;;;;;;;3.17;2.97;;;11.20;99.90;;;;;;4995331;28;20039;-76
2022/06/02 02:40:21;;;;;;;5.15;3.53;;;11.00;99.90;;;;;;4997879;28;20061;-77
2022/06/02 02:42:59;;;;;;;5.68;3.38;;;11.00;99.90;;;;;;4996406;28;20141;-76
2022/06/02 02:45:35;;;;;;;4.90;4.15;;;11.10;99.90;;;;;;4997934;28;20034;-76
2022/06/02 02:48:30;;;;;;;4.65;3.67;;;11.10;99.90;;;;;;4996908;28;20034;-76
2022/06/02 02:51:33;;;;;;;3.78;3.38;;;11.00;99.90;;;;;;4992334;28;20147;-78
2022/06/02 02:54:09;;;;;;;4.32;3.92;;;11.20;99.90;;;;;;4997955;28;20022;-78
2022/06/02 02:56:55;;;;;;;5.05;3.75;;;11.20;99.90;;;;;;4996372;28;20026;-77
2022/06/02 02:59:35;;;;;;;4.55;3.75;;;11.30;99.90;;;;;;4996521;28;20144;-77
2022/06/02 03:02:03;;;;;;;3.72;3.30;;;11.40;99.90;;;;;;4989781;28;20096;-78
2022/06/02 03:04:45;;;;;;;;;;;11.30;99.90;;;;;;5000978;28;20036;-78
2022/06/02 03:07:11;;;;;;;4.63;3.67;;;11.30;99.90;;;;;;4994333;28;19925;-78
2022/06/02 03:09:58;;;;;;;4.40;3.92;;;11.00;99.90;;;;;;4979851;28;20362;-77
2022/06/02 03:12:50;;;;;;;6.00;4.55;;;10.90;99.90;;;;;;4998999;28;20030;-77
2022/06/02 03:15:21;;;;;;;4.45;4.05;;;10.80;99.90;;;;;;4997113;28;20164;-78
2022/06/02 03:18:02;;;;;;;5.00;4.25;;;10.90;99.90;;;;;;4996895;28;20054;-77
2022/06/02 03:20:39;;;;;;;5.30;4.80;;;10.80;99.90;;;;;;4998415;28;20026;-77
2022/06/02 03:23:15;;;;;;;5.53;3.88;;;10.90;99.90;;;;;;4980410;28;20504;-77
2022/06/02 03:25:56;;;;;;;3.72;3.40;;;11.00;99.90;;;;;;5001598;28;20026;-78
2022/06/02 03:28:28;;;;;;;3.42;3.13;;;11.00;99.90;;;;;;5001294;28;20097;-77
2022/06/02 03:31:28;;;;;;;4.00;3.60;;;11.10;99.90;;;;;;5002649;28;20066;-77
2022/06/02 03:34:13;;;;;;;3.42;3.13;;;11.20;99.90;;;;;;5001239;28;20030;-77
2022/06/02 03:36:57;;;;;;;5.03;3.70;;;11.00;99.90;;;;;;5002037;28;20030;-77
2022/06/02 03:39:41;;;;;;;3.28;2.97;;;11.00;99.90;;;;;;4999666;28;20029;-77
2022/06/02 03:42:13;;;;;;;3.38;3.10;;;10.90;99.90;;;;;;5003448;28;20458;-77
2022/06/02 03:44:55;;;;;;;3.45;3.15;;;11.00;99.90;;;;;;4998543;28;20065;-77
2022/06/02 03:48:04;;;;;;;5.93;3.63;;;11.10;99.90;;;;;;5001853;28;20049;-77
2022/06/02 03:50:45;;;;;;;3.92;3.13;;;11.30;99.90;;;;;;4926376;29;20126;-76
2022/06/02 03:53:31;;;;;;;4.45;4.03;;;11.40;99.90;;;;;;4997264;28;20046;-77
2022/06/02 03:56:19;;;;;;;4.95;3.95;;;11.40;99.90;;;;;;5002756;28;20112;-77
2022/06/02 03:59:07;;;;;;;4.95;3.83;;;11.50;99.90;;;;;;4998972;28;20324;-77
2022/06/02 04:01:39;;;;;;;6.70;4.32;;;11.50;99.90;;;;;;4969782;28;20041;-77
2022/06/02 04:04:24;;;;;;;3.80;3.47;;;11.50;99.90;;;;;;5005591;28;22443;-77
2022/06/02 04:06:59;;;;;;;3.72;3.42;;;11.60;99.90;;;;;;5001152;28;20516;-77
2022/06/02 04:09:49;;;;;;;3.85;3.55;;;11.60;99.90;;;;;;5001980;28;20404;-77
2022/06/02 04:15:59;;;;;;;3.50;3.20;;;11.70;99.90;;;;;;5001424;28;20036;-77
2022/06/02 04:18:47;;;;;;;4.80;3.75;;;11.70;99.90;;;;;;5002886;28;20049;-78
2022/06/02 04:21:20;;;;;;;3.92;3.35;;;11.70;99.90;;;;;;5007525;28;20378;-78
2022/06/02 04:24:04;;;;;;;3.97;3.08;;;11.60;99.90;;;;;;5001190;28;20039;-76
2022/06/02 04:26:42;;;;;;;5.13;3.92;;;11.30;99.90;;;;;;5004574;28;20125;-77
2022/06/02 04:29:36;;;;;;;3.65;3.35;;;11.10;99.90;;;;;;5001352;28;20038;-76
2022/06/02 04:32:27;;;;;;;4.72;4.05;;;11.30;99.90;;;;;;4984500;28;20058;-77
2022/06/02 04:34:57;;;;;;;4.63;4.22;;;11.30;99.90;;;;;;4999299;28;20026;-77
2022/06/02 04:37:55;;;;;;;4.80;3.95;;;11.40;99.90;;;;;;4994572;28;20029;-77
2022/06/02 04:40:46;;;;;;;5.93;4.50;;;11.50;99.90;;;;;;4987648;28;20137;-77
2022/06/02 04:43:42;;;;;;;4.22;3.83;;;11.50;99.90;;;;;;5002152;28;20041;-77
2022/06/02 04:46:45;;;;;;;6.43;5.20;;;11.60;99.90;;;;;;5001155;28;20097;-78
2022/06/02 04:49:48;;;;;;;5.07;4.57;;;11.60;99.90;;;;;;4998823;28;21888;-77
2022/06/02 04:52:38;;;;;;;5.10;4.60;;;11.70;99.90;;;;;;4999219;28;20037;-78
2022/06/02 04:55:10;;;;;;;6.38;4.60;;;11.80;99.90;;;;;;5004489;28;20044;-77
2022/06/02 04:57:45;;;;;;;5.93;4.63;;;11.80;99.90;;;;;;5001573;28;20444;-78
2022/06/02 05:00:29;;;;;;;6.28;5.00;;;11.90;99.90;;;;;;4996521;28;20037;-78
2022/06/02 05:03:08;;;;;;;5.60;4.47;;;11.90;99.90;;;;;;5003990;28;20029;-77
2022/06/02 05:05:38;;;;;;;5.22;4.72;;;11.90;99.90;;;;;;5007023;28;20049;-77
2022/06/02 05:08:29;;;;;;;5.53;4.93;;;12.00;99.90;;;;;;4986175;28;20030;-78
2022/06/02 05:11:17;;;;;;;5.20;4.50;;;12.10;99.90;;;;;;4983461;28;20045;-78
2022/06/02 05:14:07;;;;;;;5.13;4.45;;;12.10;99.90;;;;;;5001138;28;20477;-77
2022/06/02 05:17:06;;;;;;;6.45;4.97;;;12.20;99.90;;;;;;5002133;28;20622;-78
2022/06/02 05:19:56;;;;;;;5.78;4.75;;;12.30;99.90;;;;;;5000667;28;20552;-78
2022/06/02 05:22:42;;;;;;;5.82;4.47;;;12.40;99.90;;;;;;4971147;28;20041;-78
2022/06/02 05:25:38;;;;;;;5.05;4.50;;;12.50;99.90;;;;;;4996169;28;20091;-77
2022/06/02 05:28:30;;;;;;;5.82;4.38;;;12.50;99.90;;;;;;4999435;28;20033;-78
2022/06/02 05:31:28;;;;;;;4.32;3.92;;;12.70;99.90;;;;;;4981862;28;20493;-78
2022/06/02 05:34:21;;;;;;;5.55;4.18;;;12.70;99.90;;;;;;4998081;28;20030;-78
2022/06/02 05:37:17;;;;;;;4.15;3.75;;;12.60;99.90;;;;;;4996308;28;20038;-78
2022/06/02 05:40:01;;;;;;;9.55;4.45;;;12.60;99.90;;;;;;5000569;28;20113;-78
2022/06/02 05:42:45;;;;;;;5.00;4.10;;;12.50;99.90;;;;;;4998029;28;20034;-78
2022/06/02 05:45:29;;;;;;;4.63;3.85;;;12.60;99.90;;;;;;4997803;28;20080;-78
2022/06/02 05:48:07;;;;;;;4.88;3.85;;;12.70;99.90;;;;;;4996459;28;20354;-78
2022/06/02 05:50:42;;;;;;;4.80;3.87;;;12.80;99.90;;;;;;4980848;28;20490;-77
2022/06/02 05:53:21;;;;;;;4.93;3.90;;;13.00;99.90;;;;;;5002145;28;20816;-77
2022/06/02 05:56:14;;;;;;;5.43;3.47;;;13.10;99.90;;;;;;5006886;28;20527;-78
2022/06/02 05:58:43;;;;;;;3.40;3.10;;;13.10;99.90;;;;;;5001733;28;20116;-78
2022/06/02 06:01:47;;;;;;;4.97;3.38;;;13.20;99.90;;;;;;5001372;28;20073;-78
2022/06/02 06:04:50;;;;;;;3.90;3.58;;;13.10;99.90;;;;;;4950621;28;20044;-79
2022/06/02 06:07:43;;;;;;;4.75;3.42;;;13.10;99.90;;;;;;4999074;28;20045;-76
2022/06/02 06:10:43;;;;;;;5.93;3.30;;;13.30;99.90;;;;;;4999693;28;20040;-76
2022/06/02 06:13:20;;;;;;;3.83;3.42;;;13.50;99.90;;;;;;4999361;28;20033;-76
2022/06/02 06:15:57;;;;;;;5.07;3.30;;;13.60;99.90;;;;;;5000596;28;20036;-77
2022/06/02 06:18:25;;;;;;;5.70;3.90;;;13.50;99.90;;;;;;4998322;28;20137;-77
2022/06/02 06:21:29;;;;;;;7.70;4.28;;;13.60;99.90;;;;;;5000154;28;20544;-77
2022/06/02 06:23:57;;;;;;;7.18;4.20;;;13.70;99.90;;;;;;4999094;28;20038;-78
2022/06/02 06:26:41;;;;;;;4.63;3.90;;;13.80;99.90;;;;;;4996834;28;20034;-77
2022/06/02 06:29:20;;;;;;;4.40;3.97;;;13.90;99.90;;;;;;4997708;28;20077;-77
2022/06/02 06:32:05;;;;;;;4.75;3.85;;;13.90;99.90;;;;;;4999825;28;20038;-78
2022/06/02 06:34:56;;;;;;;5.55;4.28;;;14.00;99.90;;;;;;5000473;28;20029;-78
2022/06/02 06:37:47;;;;;;;7.65;4.30;;;14.10;99.90;;;;;;5001639;28;20026;-77
2022/06/02 06:40:13;;;;;;;5.28;4.43;;;14.10;99.90;;;;;;5005419;28;20041;-78
2022/06/02 06:43:11;;;;;;;5.07;4.15;;;14.20;99.90;;;;;;4994784;28;20033;-78
2022/06/02 06:45:43;;;;;;;;;;;14.40;99.90;;;;;;5003073;28;20092;-78
2022/06/02 06:48:23;;;;;;;5.10;3.78;;;14.40;99.90;;;;;;4989756;28;20019;-77
2022/06/02 06:51:09;;;;;;;7.65;4.07;;;14.50;99.90;;;;;;5008028;28;20103;-78
2022/06/02 06:54:15;;;;;;;5.70;4.20;;;14.60;99.90;;;;;;5000537;28;20069;-77
2022/06/02 06:56:58;;;;;;;5.38;4.40;;;14.70;99.90;;;;;;5000237;28;20034;-77
2022/06/02 07:00:00;;;;;;;4.72;4.22;;;14.80;99.90;;;;;;4999980;28;20034;-77
2022/06/02 07:02:44;;;;;;;6.00;4.45;;;14.90;99.90;;;;;;4983550;28;20402;-77
2022/06/02 07:05:27;;;;;;;6.35;5.22;;;15.00;99.90;;;;;;5000847;28;20073;-77
2022/06/02 07:08:21;;;;;;;6.70;4.45;;;15.10;99.90;;;;;;5002163;28;20038;-77
2022/06/02 07:10:58;;;;;;;5.00;4.40;;;15.00;99.90;;;;;;5001513;28;20073;-78
2022/06/02 07:13:37;;;;;;;4.72;4.28;;;15.20;99.90;;;;;;5000927;28;20027;-78
2022/06/02 07:16:12;;;;;;;5.28;4.30;;;15.10;99.90;;;;;;5004560;28;20029;-77
2022/06/02 07:19:17;;;;;;;4.55;4.15;;;14.90;99.90;;;;;;4997095;28;20057;-77
2022/06/02 07:21:51;;;;;;;5.97;4.65;;;14.90;99.90;;;;;;5006691;28;20076;-77
2022/06/02 07:24:48;;;;;;;6.57;5.10;;;15.10;99.90;;;;;;5002857;28;20514;-78
2022/06/02 07:27:52;;;;;;;4.93;4.38;;;15.20;99.90;;;;;;5001329;28;21265;-77
2022/06/02 07:30:47;;;;;;;5.18;4.07;;;15.50;99.90;;;;;;4967999;28;20045;-78
2022/06/02 07:33:37;;;;;;;6.20;4.55;;;15.60;99.90;;;;;;5004584;28;20157;-77
2022/06/02 07:36:03;;;;;;;6.00;4.10;;;15.80;99.90;;;;;;4997956;28;20041;-78
2022/06/02 07:39:10;;;;;;;4.30;3.85;;;15.90;99.90;;;;;;5002475;28;20542;-78
2022/06/02 07:42:12;;;;;;;4.90;4.43;;;16.10;99.90;;;;;;5004495;28;20920;-77
2022/06/02 07:45:31;;;;;;;4.22;3.83;;;16.10;99.90;;;;;;5002713;28;20045;-77
2022/06/02 07:48:03;;;;;;;4.15;3.75;;;16.40;99.90;;;;;;4947224;28;20156;-78
2022/06/02 07:50:30;;;;;;;5.20;3.80;;;16.40;99.90;;;;;;5003752;28;20034;-77
2022/06/02 07:53:09;;;;;;;4.75;3.83;;;16.50;99.90;;;;;;4983748;28;20042;-77
2022/06/02 07:55:54;;;;;;;4.97;3.50;;;16.60;99.90;;;;;;5006459;28;20021;-77
2022/06/02 07:58:33;;;;;;;4.47;4.07;;;16.60;99.90;;;;;;5008625;28;20519;-76
2022/06/02 08:01:16;;;;;;;4.43;4.03;;;16.80;99.90;;;;;;5005667;28;20042;-77
2022/06/02 08:04:03;;;;;;;3.92;3.60;;;16.80;96.80;;;;;;4990618;28;20423;-78
2022/06/02 08:06:39;;;;;;;4.17;3.40;;;16.80;99.90;;;;;;5002521;28;20034;-78
2022/06/02 08:09:27;;;;;;;4.40;3.80;;;16.80;98.30;;;;;;5006005;28;20379;-77
2022/06/02 08:11:58;;;;;;;4.05;3.60;;;16.80;99.90;;;;;;4988466;28;20030;-78
2022/06/02 08:14:33;;;;;;;3.40;3.10;;;17.10;99.90;;;;;;5003496;28;20037;-78
2022/06/02 08:17:35;;;;;;;4.40;3.65;;;17.20;98.10;;;;;;5003736;28;20038;-77
2022/06/02 08:20:15;;;;;;;4.18;3.78;;;17.40;99.90;;;;;;5002418;28;20057;-77
2022/06/02 08:22:53;;;;;;;4.10;3.70;;;17.60;98.70;;;;;;4985696;28;20100;-78
2022/06/02 08:25:22;;;;;;;5.22;3.88;;;17.70;99.90;;;;;;5002933;28;20026;-77
2022/06/02 08:28:00;;;;;;;4.40;3.75;;;17.70;98.90;;;;;;5003366;28;20109;-77
2022/06/02 08:30:35;;;;;;;5.53;4.20;;;17.60;98.30;;;;;;5003856;28;20038;-78
2022/06/02 08:33:19;;;;;;;4.35;3.92;;;17.70;99.80;;;;;;5003889;28;20034;-77
2022/06/02 08:36:04;;;;;;;4.75;3.88;;;17.80;98.60;;;;;;5000742;28;20042;-78
2022/06/02 08:38:39;;;;;;;5.28;3.80;;;17.80;97.20;;;;;;5001567;28;20147;-77
2022/06/02 08:41:38;;;;;;;4.70;4.00;;;17.80;99.90;;;;;;5000141;28;20030;-78
2022/06/02 08:44:37;;;;;;;4.45;3.80;;;17.80;94.00;;;;;;5003824;28;20706;-78
2022/06/02 08:47:44;;;;;;;5.40;3.67;;;18.00;96.80;;;;;;5003854;28;20061;-78
2022/06/02 08:50:59;;;;;;;4.43;4.03;;;18.10;94.10;;;;;;5005901;28;20562;-78
2022/06/02 08:53:59;;;;;;;6.35;3.65;;;18.40;93.80;;;;;;4983704;28;20428;-78
2022/06/02 08:56:59;;;;;;;5.63;3.75;;;18.20;90.80;;;;;;5003819;28;20040;-77
2022/06/02 08:59:55;;;;;;;6.22;4.07;;;18.20;93.90;;;;;;5003565;28;20030;-77
2022/06/02 09:02:39;;;;;;;5.38;4.15;;;18.30;96.50;;;;;;4992605;28;20120;-77
2022/06/02 09:05:49;;;;;;;6.53;3.63;;;18.40;88.50;;;;;;5005912;28;20033;-77
2022/06/02 09:08:38;;;;;;;4.72;4.18;;;18.50;92.60;;;;;;5002534;28;20041;-77
2022/06/02 09:11:39;;;;;;;3.63;3.33;;;18.60;92.10;;;;;;4978388;28;20069;-77
2022/06/02 09:14:19;;;;;;;3.42;3.17;;;18.50;89.60;;;;;;4969658;28;20050;-77
2022/06/02 09:17:22;;;;;;;5.43;3.55;;;18.70;93.30;;;;;;4998938;28;20117;-77
2022/06/02 09:19:50;;;;;;;3.90;3.45;;;19.00;92.20;;;;;;5003201;28;20064;-77
2022/06/02 09:22:25;;;;;;;3.95;3.60;;;19.10;81.00;;;;;;5002838;28;20342;-78
2022/06/02 09:25:10;;;;;;;4.28;3.60;;;19.20;88.80;;;;;;5000997;28;20045;-78
2022/06/02 09:28:17;;;;;;;3.80;3.40;;;19.40;89.30;;;;;;4983250;28;20044;-78
2022/06/02 09:31:10;;;;;;;3.80;3.20;;;19.40;86.10;;;;;;4986071;28;20072;-78
2022/06/02 09:33:57;;;;;;;4.30;3.90;;;19.30;82.40;;;;;;5004456;28;20030;-78
2022/06/02 09:36:45;;;;;;;5.05;3.15;;;19.20;87.70;;;;;;4981514;28;20777;-77
2022/06/02 09:39:24;;;;;;;3.67;3.30;;;19.50;72.80;;;;;;5002802;28;20038;-78
2022/06/02 09:42:08;;;;;;;5.05;3.28;;;19.80;70.80;;;;;;5001078;28;20112;-78
2022/06/02 09:44:47;;;;;;;3.50;3.20;;;20.00;91.10;;;;;;5005284;28;20061;-78
2022/06/02 09:47:33;;;;;;;4.03;3.60;;;19.90;69.80;;;;;;4998407;28;20049;-78
2022/06/02 09:50:23;;;;;;;8.35;3.45;;;20.00;78.60;;;;;;4997289;28;20508;-78
2022/06/02 09:53:09;;;;;;;5.47;3.25;;;20.10;78.20;;;;;;5007221;28;20034;-78
2022/06/02 09:55:57;;;;;;;3.08;2.83;;;20.60;64.50;;;;;;5003038;28;20132;-78
2022/06/02 09:58:43;;;;;;;3.70;2.78;;;20.70;71.80;;;;;;5001681;28;20045;-78
2022/06/02 10:01:22;;;;;;;3.00;2.80;;;20.60;72.80;;;;;;4998790;28;20336;-78
2022/06/02 10:04:07;;;;;;;3.30;3.10;;;20.40;70.30;;;;;;5002561;28;20124;-78
2022/06/02 10:07:07;;;;;;;3.33;2.97;;;20.40;62.50;;;;;;4998746;28;20030;-77
2022/06/02 10:09:41;;;;;;;3.55;2.58;;;21.00;67.60;;;;;;4999874;28;20069;-78
2022/06/02 10:12:58;;;;;;;3.38;3.08;;;21.00;71.50;;;;;;5002192;28;20477;-77
2022/06/02 10:15:35;;;;;;;4.67;2.90;;;20.90;64.80;;;;;;5002707;28;20030;-78
2022/06/02 10:18:06;;;;;;;3.15;2.80;;;20.80;65.80;;;;;;4976530;28;20305;-77
2022/06/02 10:20:48;;;;;;;3.78;2.60;;;20.70;70.00;;;;;;4983457;28;20485;-77
2022/06/02 10:24:01;;;;;;;3.47;3.13;;;20.70;71.50;;;;;;4980858;28;20401;-76
2022/06/02 10:26:38;;;;;;;3.20;2.85;;;20.70;78.90;;;;;;4979503;28;20141;-76
2022/06/02 10:29:35;;;;;;;4.50;2.70;;;20.80;69.20;;;;;;4981375;28;20047;-77
2022/06/02 10:32:20;;;;;;;2.70;2.50;;;21.20;61.30;;;;;;4977954;28;20053;-77
2022/06/02 10:34:54;;;;;;;3.55;2.95;;;21.60;63.20;;;;;;4987358;28;20037;-77
2022/06/02 10:37:27;;;;;;;3.30;2.67;;;21.30;62.70;;;;;;4983399;28;20030;-77
2022/06/02 10:40:16;;;;;;;2.83;2.47;;;21.20;65.60;;;;;;4983607;28;20034;-77
2022/06/02 10:43:03;;;;;;;3.20;2.42;;;21.20;54.40;;;;;;4990008;28;20030;-77
2022/06/02 10:46:12;;;;;;;3.00;2.70;;;21.20;56.40;;;;;;4997257;28;20038;-77
2022/06/02 10:49:07;;;;;;;3.00;2.47;;;21.30;63.30;;;;;;4990036;28;20030;-77
2022/06/02 10:52:10;;;;;;;5.90;2.63;;;21.20;55.70;;;;;;4985260;28;20545;-77
2022/06/02 10:55:07;;;;;;;2.20;2.00;;;21.20;54.30;;;;;;4989334;28;20042;-78
2022/06/02 10:57:41;;;;;;;3.70;2.72;;;21.20;58.20;;;;;;4986666;28;20658;-78
2022/06/02 11:00:07;;;;;;;3.05;2.72;;;21.00;59.50;;;;;;4983834;28;20030;-79
2022/06/02 11:02:48;;;;;;;2.55;2.13;;;21.00;62.00;;;;;;4990507;28;20061;-78
2022/06/02 11:05:52;;;;;;;4.43;2.65;;;21.20;55.00;;;;;;4983242;28;20037;-78
2022/06/02 11:08:33;;;;;;;2.83;2.38;;;21.50;53.20;;;;;;4989340;28;20400;-78
2022/06/02 11:11:36;;;;;;;2.83;2.47;;;21.70;52.40;;;;;;4992261;28;20027;-78
2022/06/02 11:14:04;;;;;;;4.05;2.17;;;21.70;57.10;;;;;;4982331;28;20481;-77
2022/06/02 11:17:07;;;;;;;2.30;2.10;;;21.40;59.60;;;;;;4984896;28;20426;-77
2022/06/02 11:19:50;;;;;;;2.63;2.22;;;21.40;66.80;;;;;;4987398;28;20437;-77
2022/06/02 11:22:47;;;;;;;2.70;2.33;;;21.30;57.30;;;;;;4985425;28;20058;-77
2022/06/02 11:25:13;;;;;;;;;;;21.30;60.00;;;;;;4989158;28;20034;-77
2022/06/02 11:28:27;;;;;;;2.95;2.55;;;21.30;57.00;;;;;;4987835;28;19924;-77
2022/06/02 11:30:55;;;;;;;3.33;2.92;;;21.10;53.00;;;;;;4952401;28;20056;-77
2022/06/02 11:33:42;;;;;;;3.47;2.47;;;21.20;54.80;;;;;;4989599;28;20062;-77
2022/06/02 11:36:27;;;;;;;2.80;2.60;;;21.10;55.30;;;;;;4986283;28;20035;-78
2022/06/02 11:39:33;;;;;;;5.55;3.22;;;21.00;54.60;;;;;;4987004;28;20023;-78
2022/06/02 11:42:11;;;;;;;31.67;5.05;;;21.20;55.30;;;;;;4967597;28;20089;-78
2022/06/02 11:44:46;;;;;;;3.53;2.67;;;21.50;58.00;;;;;;4986253;28;20034;-78
2022/06/02 11:47:31;;;;;;;2.97;2.00;;;21.90;59.80;;;;;;4983625;28;21138;-78
2022/06/02 11:50:17;;;;;;;5.03;3.88;;;21.90;56.10;;;;;;4983213;28;21858;-79
2022/06/02 11:53:17;;;;;;;2.60;2.40;;;21.80;57.90;;;;;;4994873;28;20068;-78
2022/06/02 11:55:56;;;;;;;2.45;2.30;;;21.60;63.80;;;;;;4987552;28;22320;-78
2022/06/02 11:58:49;;;;;;;3.67;2.88;;;21.50;69.10;;;;;;4976846;28;20497;-77
2022/06/02 12:01:39;;;;;;;5.50;2.72;;;21.30;58.20;;;;;;4978710;28;20074;-78
2022/06/02 12:04:31;;;;;;;2.70;2.50;;;21.30;68.70;;;;;;4982048;28;20042;-78
2022/06/02 12:07:15;;;;;;;2.88;2.60;;;21.20;63.60;;;;;;4983328;28;20042;-78
2022/06/02 12:10:18;;;;;;;4.22;2.80;;;21.30;75.00;;;;;;4990240;28;20535;-78
2022/06/02 12:13:07;;;;;;;3.15;2.50;;;21.30;64.30;;;;;;4985421;28;20041;-78
2022/06/02 12:15:57;;;;;;;2.97;2.45;;;21.30;58.20;;;;;;4984248;28;20030;-78
2022/06/02 12:18:41;;;;;;;2.70;2.50;;;21.40;68.20;;;;;;4980846;28;20062;-78
2022/06/02 12:21:19;;;;;;;3.20;2.90;;;21.50;59.50;;;;;;4985456;28;20117;-78
2022/06/02 12:24:01;;;;;;;5.22;2.60;;;21.30;57.00;;;;;;4986610;28;20043;-78
2022/06/02 12:27:04;;;;;;;4.25;2.53;;;21.10;60.10;;;;;;4985278;28;20056;-78
2022/06/02 12:30:08;;;;;;;2.30;2.20;;;21.20;56.30;;;;;;4980120;28;20124;-78
2022/06/02 12:32:53;;;;;;;2.15;1.90;;;21.30;52.90;;;;;;4982042;28;20430;-78
2022/06/02 12:35:25;;;;;;;2.50;2.28;;;21.20;57.40;;;;;;4985643;28;20054;-77
2022/06/02 12:38:20;;;;;;;2.45;2.25;;;21.40;65.00;;;;;;4980624;28;20034;-78
2022/06/02 12:41:11;;;;;;;3.53;2.40;;;21.50;61.20;;;;;;4987219;28;20030;-78
2022/06/02 12:43:59;;;;;;;2.95;2.15;;;21.50;66.70;;;;;;4966135;28;20054;-77
2022/06/02 12:46:37;;;;;;;;;;;21.80;61.20;;;;;;4985842;28;20037;-77
2022/06/02 12:49:42;;;;;;;3.22;2.63;;;22.00;58.00;;;;;;4982506;28;19918;-77
2022/06/02 12:52:38;;;;;;;3.75;2.72;;;21.90;56.60;;;;;;4975632;28;20057;-77
2022/06/02 12:55:25;;;;;;;3.37;2.70;;;21.60;57.90;;;;;;4984343;28;21782;-77
2022/06/02 12:58:13;;;;;;;2.65;2.42;;;21.80;57.60;;;;;;4981912;28;20421;-78
2022/06/02 13:00:50;;;;;;;3.03;2.83;;;21.90;67.50;;;;;;4980651;28;20557;-78
2022/06/02 13:03:34;;;;;;;;;;;22.00;63.80;;;;;;4982253;28;20046;-78
2022/06/02 13:06:10;;;;;;;3.58;2.50;;;21.90;54.50;;;;;;4984825;28;20000;-78
2022/06/02 13:09:15;;;;;;;2.72;2.22;;;21.90;58.40;;;;;;4983553;28;20156;-77
2022/06/02 13:11:52;;;;;;;3.20;2.30;;;21.70;53.00;;;;;;4978725;28;20153;-77
2022/06/02 13:14:43;;;;;;;2.55;2.35;;;21.70;55.10;;;;;;4981550;28;20030;-78
2022/06/02 13:17:37;;;;;;;2.60;2.40;;;21.80;59.00;;;;;;4983204;28;20026;-78
2022/06/02 13:20:09;;;;;;;4.15;2.80;;;21.80;57.40;;;;;;5001826;28;20084;-78
2022/06/02 13:22:56;;;;;;;2.60;2.30;;;21.80;59.30;;;;;;5007586;28;20029;-78
2022/06/02 13:25:43;;;;;;;2.47;2.28;;;21.80;54.10;;;;;;5003710;28;20027;-77
2022/06/02 13:28:23;;;;;;;3.33;2.50;;;21.70;57.60;;;;;;4982823;28;20117;-77
2022/06/02 13:31:15;;;;;;;3.58;2.33;;;21.70;58.10;;;;;;5001325;28;20581;-78
2022/06/02 13:34:08;;;;;;;2.70;2.50;;;21.80;54.30;;;;;;4979113;28;20460;-77
2022/06/02 13:37:12;;;;;;;2.50;2.30;;;21.90;56.30;;;;;;5005891;28;20117;-77
2022/06/02 13:40:05;;;;;;;2.70;2.50;;;22.10;60.10;;;;;;4988152;28;20065;-77
2022/06/02 13:42:44;;;;;;;2.85;2.35;;;22.10;58.80;;;;;;5001797;28;20037;-77
2022/06/02 13:45:44;;;;;;;2.47;2.28;;;22.10;57.80;;;;;;5005281;28;20022;-77
2022/06/02 13:48:45;;;;;;;2.78;2.53;;;22.10;58.10;;;;;;4951259;28;20088;-77
2022/06/02 13:51:32;;;;;;;4.90;2.40;;;22.20;55.40;;;;;;4980543;28;20176;-77
2022/06/02 13:57:44;;;;;;;2.30;2.10;;;21.70;57.90;;;;;;5005731;28;20060;-78
2022/06/02 14:00:47;;;;;;;2.75;2.50;;;21.60;59.50;;;;;;5002280;28;20038;-77
2022/06/02 14:03:32;;;;;;;2.38;2.17;;;21.50;67.10;;;;;;4999736;28;20085;-77
2022/06/02 14:06:24;;;;;;;3.33;2.30;;;21.50;69.20;;;;;;4999890;28;20025;-78
2022/06/02 14:09:08;;;;;;;2.95;2.50;;;21.40;61.00;;;;;;4981326;28;20136;-78
2022/06/02 14:11:49;;;;;;;2.53;2.30;;;21.50;60.40;;;;;;5003419;28;20092;-78
2022/06/02 14:14:29;;;;;;;2.90;2.28;;;21.40;59.70;;;;;;5002244;28;20466;-78
2022/06/02 14:16:58;;;;;;;5.22;2.50;;;21.40;73.50;;;;;;4999808;28;20041;-78
2022/06/02 14:19:39;;;;;;;3.03;2.45;;;21.40;62.40;;;;;;5003153;28;20065;-79
2022/06/02 14:22:29;;;;;;;2.65;2.42;;;21.40;66.70;;;;;;5004702;28;20025;-78
2022/06/02 14:25:13;;;;;;;2.92;2.60;;;21.40;70.10;;;;;;5002835;28;20562;-78
2022/06/02 14:28:14;;;;;;;3.60;2.40;;;21.40;70.70;;;;;;5002167;28;20033;-78
2022/06/02 14:31:09;;;;;;;2.67;2.15;;;21.40;60.70;;;;;;5001887;28;20120;-77
2022/06/02 14:33:39;;;;;;;4.43;2.10;;;21.50;64.20;;;;;;4996627;28;20048;-77
2022/06/02 14:36:40;;;;;;;3.80;2.40;;;21.60;68.80;;;;;;5006384;28;20034;-78
2022/06/02 14:39:27;;;;;;;2.47;2.28;;;21.60;62.80;;;;;;4983841;28;20037;-78